Eldridge, IA

1:11 AM CST on November 27, 2014 (GMT -0600)
West Hickory Street | Change Station
CLOSE
Current Station
Personal Weather Station
Location: Eldridge, IA
Elevation: 774 ft
Nearby Weather Stations

Elev 774 ft 41.65 °N, 90.59 °W | Updated 2 minutes ago

Overcast
Overcast
22.7 °F
Feels Like 17 °F
N
4.0
Wind Variable Wind from NNW
Gusts 6.0 mph

Today
High -- | Low -- °F
--% Chance of Precip.
Yesterday
High -- | Low -- °F
Precip. -- in
7:05 AM 4:34 PM
Waxing Crescent, 27% visible
Pressure 30.29 in
Visibility 4.0 miles
Clouds Few 1500 ft
Scattered Clouds 4000 ft
Mostly Cloudy 8500 ft
Windchill 17 °F
Dew Point 21 °F
Humidity 91%
Rainfall 0.00 in
Snow Depth Not available.
UV 0 out of 12
Pollen .10 out of 12
Air Quality Not available.
Flu Activity Not available.
SPECI KDVN 270705Z AUTO 32006KT 4SM -SN BR FEW015 SCT040 BKN085 M06/M08 A3029 RMK AO2 P0000 T10561078

More Conditions Fewer Conditions

Pressure 30.29 in
Visibility 4.0 miles
Clouds Few 1500 ft
Scattered Clouds 4000 ft
Mostly Cloudy 8500 ft
Windchill 17 °F
Dew Point 21 °F
Humidity 91%
Rainfall 0.00 in
Snow Depth Not available.
UV 0 out of 12
Pollen .10 out of 12
Air Quality Not available.
Flu Activity Not available.
SPECI KDVN 270705Z AUTO 32006KT 4SM -SN BR FEW015 SCT040 BKN085 M06/M08 A3029 RMK AO2 P0000 T10561078

More Conditions Fewer Conditions

10-Day Weather Forecast

Almanac

Astronomy

Nov. 27, 2014 Rise Set
Actual Time
Civil Twilight
Nautical Twilight
Astronomical Twilight
Moon
Length of Visible Light
Length of Day
Tomorrow will be .
, % of the Moon is Illuminated

Today's Extremes

State Highs State Lows

Community

WunderPhotos

Upload Photos

1,773,966 photos uploaded!

WunderBlogs® & News

Nearby

Air Quality

  Air Quality AQ Index Pollutant
Not available.

Snow Depth

Station Depth Elevation

Earthquake Activity

City Distance Mag. Time & Date
Minimum magnitude displayed is 2.5.

Coastal Water Temperatures

Place Temperature

Nearby Weather Stations